createdAt,value
2022-11-25T00:01:58.875Z,100.00
2022-11-25T00:05:00.426Z,100.00
2022-11-25T00:08:02.012Z,100.00
2022-11-25T00:11:05.146Z,100.00
2022-11-25T00:14:10.153Z,100.00
2022-11-25T00:17:11.678Z,100.00
2022-11-25T00:20:13.383Z,100.00
2022-11-25T00:23:17.321Z,100.00
2022-11-25T00:26:19.335Z,100.00
2022-11-25T00:29:20.986Z,100.00
2022-11-25T00:32:22.599Z,100.00
2022-11-25T00:35:24.138Z,100.00
2022-11-25T00:38:25.732Z,100.00
2022-11-25T00:41:47.206Z,100.00
2022-11-25T00:44:48.786Z,100.00
2022-11-25T00:47:50.411Z,100.00
2022-11-25T00:50:53.025Z,100.00
2022-11-25T00:53:58.948Z,100.00
2022-11-25T00:57:00.867Z,100.00
2022-11-25T01:00:05.936Z,100.00
2022-11-25T01:03:07.600Z,100.00
2022-11-25T01:06:11.294Z,100.00
2022-11-25T01:09:13.785Z,100.00
2022-11-25T01:12:15.336Z,100.00
2022-11-25T01:15:16.930Z,100.00
2022-11-25T01:18:18.635Z,100.00
2022-11-25T01:21:23.494Z,100.00
2022-11-25T01:24:26.380Z,100.00
2022-11-25T01:27:28.559Z,100.00
2022-11-25T01:30:30.404Z,100.00
2022-11-25T01:33:32.818Z,100.00
2022-11-25T01:36:34.796Z,100.00
2022-11-25T01:39:38.809Z,100.00
2022-11-25T01:42:46.855Z,100.00
2022-11-25T01:45:48.484Z,100.00
2022-11-25T01:48:57.146Z,100.00
2022-11-25T01:52:01.718Z,100.00
2022-11-25T01:55:09.798Z,100.00
2022-11-25T01:58:18.773Z,100.00
2022-11-25T02:01:21.785Z,100.00
2022-11-25T02:04:28.111Z,100.00
2022-11-25T02:07:35.168Z,100.00
2022-11-25T02:10:36.833Z,100.00
2022-11-25T02:13:38.487Z,100.00
2022-11-25T02:16:40.624Z,100.00
2022-11-25T02:19:58.563Z,100.00
2022-11-25T02:23:39.630Z,100.00
2022-11-25T02:26:41.322Z,100.00
2022-11-25T02:29:44.434Z,100.00
2022-11-25T02:32:48.243Z,100.00
2022-11-25T02:35:56.762Z,100.00
2022-11-25T02:39:00.723Z,100.00
2022-11-25T02:42:06.514Z,100.00
2022-11-25T02:45:13.085Z,100.00
2022-11-25T02:48:14.799Z,100.00
2022-11-25T02:51:19.109Z,100.00
2022-11-25T02:54:21.386Z,100.00
2022-11-25T02:57:23.988Z,100.00
2022-11-25T03:00:25.951Z,100.00
2022-11-25T03:03:27.804Z,100.00
2022-11-25T03:06:30.616Z,100.00
2022-11-25T03:09:32.118Z,100.00
2022-11-25T03:12:33.794Z,100.00
2022-11-25T03:15:36.332Z,100.00
2022-11-25T03:18:38.268Z,100.00
2022-11-25T03:21:39.831Z,100.00
2022-11-25T03:24:42.078Z,100.00
2022-11-25T03:27:44.408Z,100.00
2022-11-25T03:30:46.222Z,100.00
2022-11-25T03:33:47.795Z,100.00
2022-11-25T03:36:49.719Z,100.00
2022-11-25T03:39:51.409Z,100.00
2022-11-25T03:42:53.133Z,100.00
2022-11-25T03:45:54.802Z,100.00
2022-11-25T03:48:56.796Z,100.00
2022-11-25T03:51:58.774Z,100.00
2022-11-25T03:55:00.764Z,100.00
2022-11-25T03:58:06.182Z,100.00
2022-11-25T04:01:08.042Z,100.00
2022-11-25T04:04:09.638Z,100.00
2022-11-25T04:07:11.391Z,100.00
2022-11-25T04:10:13.079Z,100.00
2022-11-25T04:13:14.826Z,100.00
2022-11-25T04:16:23.124Z,100.00
2022-11-25T04:19:26.071Z,100.00
2022-11-25T04:22:27.683Z,100.00
2022-11-25T04:25:29.498Z,100.00
2022-11-25T04:28:31.429Z,100.00
2022-11-25T04:31:33.125Z,100.00
2022-11-25T04:34:35.190Z,100.00
2022-11-25T04:37:37.846Z,100.00
2022-11-25T04:40:39.454Z,100.00
2022-11-25T04:43:59.973Z,100.00
2022-11-25T04:47:03.104Z,100.00
2022-11-25T04:50:08.318Z,100.00
2022-11-25T04:53:20.323Z,100.00
2022-11-25T04:56:22.128Z,100.00
2022-11-25T04:59:41.687Z,100.00
2022-11-25T05:02:45.395Z,100.00
2022-11-25T05:05:54.190Z,100.00
2022-11-25T05:08:56.014Z,100.00
2022-11-25T05:11:59.989Z,100.00
2022-11-25T05:15:01.846Z,100.00
2022-11-25T05:18:04.028Z,100.00
2022-11-25T05:21:19.159Z,100.00
2022-11-25T05:24:20.849Z,100.00
2022-11-25T05:27:26.856Z,100.00
2022-11-25T05:30:30.233Z,100.00
2022-11-25T05:33:32.122Z,100.00
2022-11-25T05:36:34.511Z,100.00
2022-11-25T05:39:36.349Z,100.00
2022-11-25T05:43:10.321Z,100.00
2022-11-25T05:46:14.229Z,100.00
2022-11-25T05:49:22.227Z,100.00
2022-11-25T05:52:25.162Z,100.00
2022-11-25T05:55:32.115Z,100.00
2022-11-25T05:58:36.111Z,100.00
2022-11-25T06:01:38.450Z,100.00
2022-11-25T06:04:40.048Z,100.00
2022-11-25T06:07:43.771Z,100.00
2022-11-25T06:10:45.879Z,100.00
2022-11-25T06:13:47.548Z,100.00
2022-11-25T06:16:49.244Z,100.00
2022-11-25T06:20:13.781Z,100.00
2022-11-25T06:23:15.439Z,100.00
2022-11-25T06:26:20.414Z,100.00
2022-11-25T06:29:23.151Z,100.00
2022-11-25T06:32:26.066Z,100.00
2022-11-25T06:35:32.488Z,100.00
2022-11-25T06:38:36.655Z,100.00
2022-11-25T06:41:38.138Z,100.00
2022-11-25T06:44:39.680Z,100.00
2022-11-25T06:47:41.242Z,100.00
2022-11-25T06:50:42.831Z,100.00
2022-11-25T06:53:44.921Z,100.00
2022-11-25T06:56:51.543Z,100.00
2022-11-25T06:59:53.148Z,100.00
2022-11-25T07:02:54.745Z,100.00
2022-11-25T07:05:59.926Z,100.00
2022-11-25T07:09:02.245Z,100.00
2022-11-25T07:12:05.740Z,100.00
2022-11-25T07:15:07.608Z,100.00
2022-11-25T07:18:09.231Z,100.00
2022-11-25T07:21:16.869Z,100.00
2022-11-25T07:24:18.520Z,100.00
2022-11-25T07:27:19.992Z,100.00
2022-11-25T07:33:44.081Z,100.00
2022-11-25T07:36:47.302Z,100.00
2022-11-25T07:39:48.914Z,100.00
2022-11-25T07:42:50.525Z,100.00
2022-11-25T07:45:52.168Z,100.00
2022-11-25T07:48:56.053Z,100.00
2022-11-25T07:52:00.500Z,100.00
2022-11-25T07:55:02.039Z,100.00
2022-11-25T07:58:03.719Z,100.00
2022-11-25T08:01:06.706Z,100.00
2022-11-25T08:04:14.973Z,99.04
2022-11-25T08:07:19.949Z,99.60
2022-11-25T08:10:21.468Z,100.00
2022-11-25T08:13:23.591Z,99.96
2022-11-25T08:16:27.778Z,99.99
2022-11-25T08:19:31.555Z,98.76
2022-11-25T08:22:36.429Z,98.92
2022-11-25T08:25:43.030Z,97.04
2022-11-25T08:28:47.964Z,98.24
2022-11-25T08:31:49.642Z,99.11
2022-11-25T08:34:51.163Z,100.00
2022-11-25T08:37:52.963Z,100.00
2022-11-25T08:40:55.618Z,100.00
2022-11-25T08:43:58.881Z,100.00
2022-11-25T08:47:00.796Z,100.00
2022-11-25T08:50:05.347Z,100.00
2022-11-25T08:53:06.959Z,100.00
2022-11-25T08:56:09.103Z,100.00
2022-11-25T08:59:10.813Z,100.00
2022-11-25T09:02:15.269Z,100.00
2022-11-25T09:05:17.817Z,100.00
2022-11-25T09:08:26.077Z,100.00
2022-11-25T09:11:30.070Z,100.00
2022-11-25T09:14:31.723Z,100.00
2022-11-25T09:17:35.548Z,100.00
2022-11-25T09:20:39.457Z,100.00
2022-11-25T09:23:41.094Z,100.00
2022-11-25T09:26:43.184Z,100.00
2022-11-25T09:29:44.747Z,100.00
2022-11-25T09:32:49.129Z,100.00
2022-11-25T09:35:50.655Z,100.00
2022-11-25T09:38:52.825Z,100.00
2022-11-25T09:42:16.006Z,100.00
2022-11-25T09:45:44.182Z,100.00
2022-11-25T09:49:15.070Z,100.00
2022-11-25T09:52:25.016Z,100.00
2022-11-25T09:55:34.494Z,100.00
2022-11-25T09:58:41.708Z,100.00
2022-11-25T10:01:50.858Z,100.00
2022-11-25T10:05:00.201Z,100.00
2022-11-25T10:08:11.719Z,100.00
2022-11-25T10:11:25.179Z,100.00
2022-11-25T10:14:38.792Z,98.70
2022-11-25T10:17:46.199Z,96.03
2022-11-25T10:20:50.726Z,92.96
2022-11-25T10:23:52.280Z,90.79
2022-11-25T10:27:00.264Z,91.10
2022-11-25T10:30:11.605Z,89.77
2022-11-25T10:33:18.271Z,87.11
2022-11-25T10:36:39.425Z,84.10
2022-11-25T10:39:40.971Z,84.56
2022-11-25T10:42:42.928Z,84.60
2022-11-25T10:46:13.833Z,86.75
2022-11-25T10:49:45.731Z,88.70
2022-11-25T10:52:55.329Z,90.01
2022-11-25T10:56:12.274Z,90.70
2022-11-25T10:59:22.844Z,91.39
2022-11-25T11:02:28.353Z,92.82
2022-11-25T11:05:31.402Z,94.03
2022-11-25T11:08:40.860Z,94.51
2022-11-25T11:11:49.207Z,95.17
2022-11-25T11:14:52.003Z,98.39
2022-11-25T11:17:56.334Z,100.00
2022-11-25T11:21:00.126Z,100.00
2022-11-25T11:24:03.351Z,100.00
2022-11-25T11:27:20.692Z,100.00
2022-11-25T11:30:26.025Z,100.00
2022-11-25T11:33:34.133Z,100.00
2022-11-25T11:36:52.453Z,100.00
2022-11-25T11:40:12.252Z,100.00
2022-11-25T11:43:36.877Z,100.00
2022-11-25T11:47:09.030Z,100.00
2022-11-25T11:50:25.631Z,100.00
2022-11-25T11:54:07.007Z,100.00
2022-11-25T11:57:23.838Z,100.00
2022-11-25T12:00:59.319Z,100.00
2022-11-25T12:04:09.150Z,100.00
2022-11-25T12:07:46.474Z,100.00
2022-11-25T12:10:56.271Z,100.00
2022-11-25T12:14:35.324Z,100.00
2022-11-25T12:17:44.149Z,100.00
2022-11-25T12:20:54.504Z,100.00
2022-11-25T12:24:06.204Z,100.00
2022-11-25T12:27:12.852Z,100.00
2022-11-25T12:30:22.872Z,100.00
2022-11-25T12:33:35.656Z,100.00
2022-11-25T12:36:40.098Z,100.00
2022-11-25T12:39:50.964Z,100.00
2022-11-25T12:42:56.411Z,100.00
2022-11-25T12:46:12.023Z,100.00
2022-11-25T12:49:31.972Z,100.00
2022-11-25T12:52:58.996Z,100.00
2022-11-25T12:56:05.418Z,100.00
2022-11-25T12:59:40.542Z,100.00
2022-11-25T13:02:48.116Z,100.00
2022-11-25T13:05:49.665Z,100.00
2022-11-25T13:09:03.932Z,100.00
2022-11-25T13:12:29.695Z,100.00
2022-11-25T13:15:38.093Z,100.00
2022-11-25T13:18:44.261Z,100.00
2022-11-25T13:22:00.584Z,100.00
2022-11-25T13:25:02.693Z,100.00
2022-11-25T13:28:27.256Z,100.00
2022-11-25T13:31:33.965Z,100.00
2022-11-25T13:34:37.062Z,100.00
2022-11-25T13:37:40.762Z,100.00
2022-11-25T13:40:42.361Z,100.00
2022-11-25T13:44:04.886Z,100.00
2022-11-25T13:47:25.993Z,100.00
2022-11-25T13:50:48.416Z,100.00
2022-11-25T13:53:57.884Z,100.00
2022-11-25T13:57:17.090Z,100.00
2022-11-25T14:00:18.641Z,100.00
2022-11-25T14:03:20.210Z,100.00
2022-11-25T14:06:28.320Z,100.00
2022-11-25T14:09:35.942Z,100.00
2022-11-25T14:12:50.718Z,100.00
2022-11-25T14:15:52.272Z,100.00
2022-11-25T14:19:35.221Z,100.00
2022-11-25T14:22:46.148Z,100.00
2022-11-25T14:26:06.104Z,100.00
2022-11-25T14:29:25.171Z,100.00
2022-11-25T14:32:37.586Z,100.00
2022-11-25T14:35:48.026Z,100.00
2022-11-25T14:38:55.346Z,100.00
2022-11-25T14:42:19.414Z,100.00
2022-11-25T14:45:29.474Z,100.00
2022-11-25T14:48:33.712Z,100.00
2022-11-25T14:51:39.919Z,100.00
2022-11-25T14:54:55.378Z,100.00
2022-11-25T14:57:57.336Z,100.00
2022-11-25T15:01:08.700Z,100.00
2022-11-25T15:04:25.393Z,100.00
2022-11-25T15:07:31.497Z,100.00
2022-11-25T15:10:51.071Z,100.00
2022-11-25T15:13:58.673Z,100.00
2022-11-25T15:17:06.751Z,100.00
2022-11-25T15:20:15.448Z,100.00
2022-11-25T15:23:24.278Z,100.00
2022-11-25T15:26:28.519Z,100.00
2022-11-25T15:29:39.952Z,100.00
2022-11-25T15:32:41.615Z,100.00
2022-11-25T15:35:43.196Z,100.00
2022-11-25T15:38:46.499Z,100.00
2022-11-25T15:42:07.446Z,100.00
2022-11-25T15:45:20.197Z,100.00
2022-11-25T15:48:38.065Z,100.00
2022-11-25T15:51:49.340Z,100.00
2022-11-25T15:54:54.446Z,100.00
2022-11-25T15:58:19.279Z,100.00
2022-11-25T16:01:23.384Z,100.00
2022-11-25T16:04:25.677Z,100.00
2022-11-25T16:07:27.501Z,100.00
2022-11-25T16:10:50.481Z,100.00
2022-11-25T16:13:53.264Z,100.00
2022-11-25T16:17:03.809Z,100.00
2022-11-25T16:20:06.067Z,100.00
2022-11-25T16:23:30.563Z,100.00
2022-11-25T16:27:01.567Z,100.00
2022-11-25T16:30:10.199Z,100.00
2022-11-25T16:33:11.795Z,100.00
2022-11-25T16:36:16.259Z,100.00
2022-11-25T16:39:23.499Z,100.00
2022-11-25T16:42:25.918Z,100.00
2022-11-25T16:45:28.572Z,100.00
2022-11-25T16:48:30.184Z,100.00
2022-11-25T16:51:31.777Z,100.00
2022-11-25T16:54:34.017Z,100.00
2022-11-25T16:57:36.737Z,100.00
2022-11-25T17:00:38.252Z,100.00
2022-11-25T17:03:40.019Z,100.00
2022-11-25T17:06:42.270Z,100.00
2022-11-25T17:09:44.867Z,100.00
2022-11-25T17:12:47.608Z,100.00
2022-11-25T17:15:49.875Z,100.00
2022-11-25T17:18:54.036Z,100.00
2022-11-25T17:21:55.623Z,100.00
2022-11-25T17:24:58.737Z,100.00
2022-11-25T17:28:00.664Z,100.00
2022-11-25T17:31:03.291Z,100.00
2022-11-25T17:34:05.077Z,100.00
2022-11-25T17:37:18.439Z,100.00
2022-11-25T17:40:20.103Z,100.00
2022-11-25T17:43:22.072Z,100.00
2022-11-25T17:46:28.672Z,100.00
2022-11-25T17:49:30.206Z,100.00
2022-11-25T17:57:21.402Z,100.00
2022-11-25T18:00:23.186Z,100.00
2022-11-25T18:03:25.096Z,100.00
2022-11-25T18:06:26.734Z,100.00
2022-11-25T18:09:28.185Z,100.00
2022-11-25T18:12:30.813Z,100.00
2022-11-25T18:15:34.051Z,100.00
2022-11-25T18:18:35.586Z,100.00
2022-11-25T18:21:37.170Z,100.00
2022-11-25T18:24:38.926Z,100.00
2022-11-25T18:27:40.993Z,100.00
2022-11-25T18:30:43.006Z,100.00
2022-11-25T18:33:44.726Z,100.00
2022-11-25T18:36:46.364Z,100.00
2022-11-25T18:39:48.051Z,100.00
2022-11-25T18:42:54.871Z,100.00
2022-11-25T18:45:57.245Z,100.00
2022-11-25T18:48:58.987Z,100.00
2022-11-25T18:52:00.641Z,100.00
2022-11-25T18:55:02.240Z,100.00
2022-11-25T18:58:10.543Z,100.00
2022-11-25T19:01:14.276Z,100.00
2022-11-25T19:04:16.668Z,100.00
2022-11-25T19:07:18.426Z,100.00
2022-11-25T19:10:22.576Z,100.00
2022-11-25T19:13:31.678Z,100.00
2022-11-25T19:16:33.885Z,100.00
2022-11-25T19:19:37.986Z,100.00
2022-11-25T19:22:45.884Z,100.00
2022-11-25T19:25:49.896Z,100.00
2022-11-25T19:28:58.708Z,100.00
2022-11-25T19:32:05.743Z,100.00
2022-11-25T19:35:08.515Z,100.00
2022-11-25T19:38:25.934Z,100.00
2022-11-25T19:41:28.034Z,100.00
2022-11-25T19:44:29.885Z,100.00
2022-11-25T19:47:31.596Z,100.00
2022-11-25T19:50:35.676Z,100.00
2022-11-25T19:53:37.390Z,100.00
2022-11-25T19:56:41.340Z,100.00
2022-11-25T19:59:44.159Z,100.00
2022-11-25T20:02:49.043Z,100.00
2022-11-25T20:05:53.351Z,100.00
2022-11-25T20:08:57.401Z,100.00
2022-11-25T20:12:17.994Z,100.00
2022-11-25T20:15:25.721Z,100.00
2022-11-25T20:18:27.688Z,100.00
2022-11-25T20:21:37.855Z,100.00
2022-11-25T20:24:39.618Z,100.00
2022-11-25T20:27:41.753Z,100.00
2022-11-25T20:30:44.359Z,100.00
2022-11-25T20:33:47.676Z,100.00
2022-11-25T20:36:49.227Z,100.00
2022-11-25T20:39:57.770Z,100.00
2022-11-25T20:42:59.725Z,100.00
2022-11-25T20:46:04.694Z,100.00
2022-11-25T20:49:20.921Z,100.00
2022-11-25T20:52:31.267Z,100.00
2022-11-25T20:55:33.210Z,100.00
2022-11-25T20:58:37.646Z,100.00
2022-11-25T21:01:39.326Z,100.00
2022-11-25T21:04:41.123Z,100.00
2022-11-25T21:07:44.207Z,100.00
2022-11-25T21:10:47.205Z,100.00
2022-11-25T21:13:49.579Z,100.00
2022-11-25T21:16:51.273Z,100.00
2022-11-25T21:19:53.005Z,100.00
2022-11-25T21:22:57.824Z,100.00
2022-11-25T21:26:20.936Z,100.00
2022-11-25T21:29:22.953Z,100.00
2022-11-25T21:32:27.544Z,100.00
2022-11-25T21:35:32.115Z,100.00
2022-11-25T21:38:33.906Z,100.00
2022-11-25T21:41:41.802Z,100.00
2022-11-25T21:44:45.011Z,100.00
2022-11-25T21:47:46.535Z,100.00
2022-11-25T21:50:48.762Z,100.00
2022-11-25T21:53:51.542Z,100.00
2022-11-25T21:56:53.454Z,100.00
2022-11-25T21:59:55.636Z,100.00
2022-11-25T22:02:57.298Z,100.00
2022-11-25T22:05:58.997Z,100.00
2022-11-25T22:09:00.542Z,100.00
2022-11-25T22:12:02.525Z,100.00
2022-11-25T22:15:04.549Z,100.00
2022-11-25T22:18:13.598Z,100.00
2022-11-25T22:21:15.265Z,100.00
2022-11-25T22:24:18.592Z,100.00
2022-11-25T22:27:23.294Z,100.00
2022-11-25T22:30:24.916Z,100.00
2022-11-25T22:33:31.327Z,100.00
2022-11-25T22:36:35.879Z,100.00
2022-11-25T22:39:37.459Z,100.00
2022-11-25T22:42:44.655Z,100.00
2022-11-25T22:45:46.847Z,100.00
2022-11-25T22:48:48.503Z,100.00
2022-11-25T22:51:50.103Z,100.00
2022-11-25T22:54:51.910Z,100.00
2022-11-25T22:57:55.885Z,100.00
2022-11-25T23:00:57.618Z,100.00
2022-11-25T23:03:59.248Z,100.00
2022-11-25T23:07:00.895Z,100.00
2022-11-25T23:10:02.572Z,100.00
2022-11-25T23:13:04.185Z,100.00
2022-11-25T23:16:06.063Z,100.00
2022-11-25T23:19:18.509Z,100.00
2022-11-25T23:22:20.324Z,100.00
2022-11-25T23:25:22.858Z,100.00
2022-11-25T23:28:25.194Z,100.00
2022-11-25T23:31:26.811Z,100.00
2022-11-25T23:34:31.020Z,100.00
2022-11-25T23:37:32.791Z,100.00
2022-11-25T23:40:34.649Z,100.00
2022-11-25T23:43:36.320Z,100.00
2022-11-25T23:46:38.227Z,100.00
2022-11-25T23:49:44.440Z,100.00
2022-11-25T23:52:46.171Z,100.00
2022-11-25T23:55:48.294Z,100.00
2022-11-25T23:58:50.575Z,100.00
